createdAt,value
2022-08-25T00:02:07.599Z,101990.25
2022-08-25T00:04:41.773Z,101995.41
2022-08-25T00:07:18.616Z,101994.22
2022-08-25T00:09:51.087Z,101996.38
2022-08-25T00:12:23.004Z,101996.88
2022-08-25T00:14:55.326Z,101989.66
2022-08-25T00:17:28.679Z,101989.91
2022-08-25T00:20:00.677Z,101986.78
2022-08-25T00:22:32.714Z,101980.44
2022-08-25T00:25:04.995Z,101980.09
2022-08-25T00:27:37.413Z,101986.09
2022-08-25T00:30:10.482Z,101978.28
2022-08-25T00:32:51.458Z,101982.84
2022-08-25T00:35:27.424Z,101983.94
2022-08-25T00:37:59.657Z,101981.38
2022-08-25T00:40:31.775Z,101987.63
2022-08-25T00:43:06.208Z,101990.63
2022-08-25T00:45:39.251Z,101985.59
2022-08-25T00:48:11.278Z,101987.75
2022-08-25T00:50:43.267Z,101978.88
2022-08-25T00:53:15.876Z,101987.63
2022-08-25T00:55:48.005Z,101985.34
2022-08-25T00:58:24.904Z,101984.16
2022-08-25T01:00:58.122Z,101984.16
2022-08-25T01:03:35.923Z,101983.78
2022-08-25T01:06:10.160Z,101992.31
2022-08-25T01:08:42.614Z,101985.56
2022-08-25T01:11:14.714Z,101989.44
2022-08-25T01:13:53.434Z,101991.59
2022-08-25T01:16:25.332Z,101991.22
2022-08-25T01:18:58.335Z,101984.88
2022-08-25T01:21:34.504Z,101991.69
2022-08-25T01:24:06.970Z,101983.66
2022-08-25T01:26:38.994Z,101994.09
2022-08-25T01:29:25.437Z,101985.47
2022-08-25T01:32:00.455Z,101991.19
2022-08-25T01:34:33.796Z,101997.78
2022-08-25T01:37:05.755Z,102003.31
2022-08-25T01:39:38.832Z,101992.75
2022-08-25T01:42:40.694Z,101991.56
2022-08-25T01:45:13.344Z,101993.69
2022-08-25T01:47:45.555Z,102007.13
2022-08-25T01:50:17.875Z,101989.13
2022-08-25T01:52:59.843Z,101997.25
2022-08-25T01:55:51.690Z,101999.44
2022-08-25T01:58:27.687Z,102000.69
2022-08-25T02:01:02.373Z,102001.78
2022-08-25T02:03:38.650Z,102011.38
2022-08-25T02:06:16.543Z,102004.03
2022-08-25T02:08:58.454Z,102001.91
2022-08-25T02:11:30.650Z,101995.31
2022-08-25T02:14:02.668Z,102002.13
2022-08-25T02:16:37.600Z,102006.78
2022-08-25T02:19:11.904Z,102005.94
2022-08-25T02:21:43.909Z,102010.63
2022-08-25T02:24:16.281Z,102016.13
2022-08-25T02:26:48.746Z,102011.94
2022-08-25T02:29:20.676Z,102005.81
2022-08-25T02:31:52.902Z,102009.41
2022-08-25T02:34:41.214Z,102013.22
2022-08-25T02:37:14.050Z,102006.06
2022-08-25T02:39:46.454Z,102003.53
2022-08-25T02:42:18.518Z,102010.97
2022-08-25T02:44:50.782Z,102004.38
2022-08-25T02:47:26.934Z,102001.63
2022-08-25T02:49:59.514Z,101996.31
2022-08-25T02:52:31.818Z,101991.28
2022-08-25T02:55:06.302Z,101999.56
2022-08-25T02:57:38.988Z,101991.75
2022-08-25T03:00:13.545Z,101990.06
2022-08-25T03:02:46.842Z,101990.91
2022-08-25T03:05:19.060Z,101982.88
2022-08-25T03:07:50.972Z,101987.06
2022-08-25T03:10:26.300Z,101984.53
2022-08-25T03:12:58.197Z,101979.50
2022-08-25T03:15:30.760Z,101986.94
2022-08-25T03:18:04.811Z,101988.84
2022-08-25T03:20:38.416Z,101982.75
2022-08-25T03:23:10.365Z,101988.25
2022-08-25T03:26:01.905Z,101987.63
2022-08-25T03:28:34.489Z,101986.34
2022-08-25T03:31:06.547Z,101984.66
2022-08-25T03:33:38.800Z,101979.16
2022-08-25T03:36:13.527Z,101976.41
2022-08-25T03:38:45.508Z,101980.84
2022-08-25T03:41:29.068Z,101976.97
2022-08-25T03:44:03.993Z,101971.72
2022-08-25T03:46:44.382Z,101978.31
2022-08-25T03:49:20.649Z,101972.66
2022-08-25T03:51:53.892Z,101969.06
2022-08-25T03:54:26.202Z,101966.78
2022-08-25T03:56:58.125Z,101973.34
2022-08-25T03:59:30.217Z,101972.50
2022-08-25T04:02:03.167Z,101970.81
2022-08-25T04:04:35.169Z,101969.41
2022-08-25T04:07:07.764Z,101975.59
2022-08-25T04:09:39.714Z,101967.78
2022-08-25T04:12:11.644Z,101969.69
2022-08-25T04:14:44.573Z,101980.34
2022-08-25T04:17:17.076Z,101979.50
2022-08-25T04:19:49.054Z,101980.81
2022-08-25T04:22:20.917Z,101974.91
2022-08-25T04:24:52.870Z,101981.75
2022-08-25T04:27:24.989Z,101976.47
2022-08-25T04:29:56.923Z,101975.88
2022-08-25T04:32:28.873Z,101977.53
2022-08-25T04:35:00.769Z,101976.94
2022-08-25T04:37:33.491Z,101991.97
2022-08-25T04:40:06.358Z,101994.97
2022-08-25T04:42:39.356Z,101993.88
2022-08-25T04:45:11.353Z,101992.84
2022-08-25T04:47:43.443Z,101996.63
2022-08-25T04:50:15.865Z,101990.25
2022-08-25T04:52:48.109Z,101991.09
2022-08-25T04:55:20.199Z,101996.63
2022-08-25T04:57:52.131Z,101996.63
2022-08-25T05:00:23.995Z,101996.63
2022-08-25T05:02:55.973Z,101992.84
2022-08-25T05:05:28.157Z,102000.22
2022-08-25T05:08:00.105Z,101992.84
2022-08-25T05:10:33.594Z,101987.31
2022-08-25T05:13:05.852Z,101986.25
2022-08-25T05:15:51.045Z,101982.66
2022-08-25T05:18:25.064Z,101979.91
2022-08-25T05:21:01.035Z,101981.38
2022-08-25T05:23:33.347Z,101973.56
2022-08-25T05:26:10.934Z,101972.50
2022-08-25T05:28:45.247Z,101978.00
2022-08-25T05:31:17.795Z,101966.75
2022-08-25T05:33:50.170Z,101964.84
2022-08-25T05:36:23.161Z,101971.56
2022-08-25T05:38:55.140Z,101963.53
2022-08-25T05:41:29.468Z,101970.09
2022-08-25T05:44:01.431Z,101970.81
2022-08-25T05:46:33.405Z,101967.41
2022-08-25T05:49:05.374Z,101970.63
2022-08-25T05:51:37.297Z,101973.38
2022-08-25T05:54:09.203Z,101975.06
2022-08-25T05:56:41.211Z,101982.00
2022-08-25T05:59:13.177Z,101981.41
2022-08-25T06:02:03.743Z,101976.75
2022-08-25T06:04:38.527Z,101976.75
2022-08-25T06:07:13.203Z,101989.63
2022-08-25T06:09:46.530Z,101980.69
2022-08-25T06:12:19.198Z,101980.91
2022-08-25T06:14:51.620Z,101972.00
2022-08-25T06:17:23.684Z,101971.16
2022-08-25T06:19:55.615Z,101972.94
2022-08-25T06:22:27.513Z,101971.69
2022-08-25T06:24:59.611Z,101970.84
2022-08-25T06:27:31.592Z,101972.94
2022-08-25T06:30:08.007Z,101974.41
2022-08-25T06:32:41.111Z,101970.34
2022-08-25T06:35:16.698Z,101978.75
2022-08-25T06:37:48.681Z,101974.91
2022-08-25T06:40:20.775Z,101967.28
2022-08-25T06:42:52.704Z,101972.16
2022-08-25T06:45:24.787Z,101973.25
2022-08-25T06:47:57.901Z,101975.38
2022-08-25T06:50:29.968Z,101975.38
2022-08-25T06:53:01.840Z,101970.50
2022-08-25T06:55:35.237Z,101968.34
2022-08-25T06:58:11.205Z,101975.06
2022-08-25T07:00:44.065Z,101979.28
2022-08-25T07:03:16.060Z,101979.16
2022-08-25T07:05:52.871Z,101983.53
2022-08-25T07:08:24.769Z,101983.44
2022-08-25T07:10:57.168Z,101985.09
2022-08-25T07:13:31.802Z,101987.88
2022-08-25T07:16:05.584Z,101990.63
2022-08-25T07:18:37.579Z,101986.78
2022-08-25T07:21:09.877Z,101992.09
2022-08-25T07:23:42.166Z,101991.16
2022-08-25T07:26:37.717Z,101987.69
2022-08-25T07:29:31.691Z,101987.34
2022-08-25T07:32:05.181Z,101984.72
2022-08-25T07:34:55.879Z,101982.47
2022-08-25T07:37:47.873Z,101979.78
2022-08-25T07:40:22.400Z,101966.38
2022-08-25T07:42:56.791Z,101976.47
2022-08-25T07:45:32.425Z,101971.78
2022-08-25T07:48:07.921Z,101980.91
2022-08-25T07:50:42.480Z,101987.50
2022-08-25T07:53:16.990Z,101984.25
2022-08-25T07:55:48.905Z,101980.28
2022-08-25T07:58:21.462Z,101984.97
2022-08-25T08:00:54.230Z,101984.88
2022-08-25T08:03:44.693Z,101983.06
2022-08-25T08:06:21.255Z,101986.69
2022-08-25T08:08:54.599Z,101982.34
2022-08-25T08:11:30.255Z,101983.31
2022-08-25T08:14:03.828Z,101976.47
2022-08-25T08:16:35.854Z,101982.22
2022-08-25T08:19:07.908Z,101979.09
2022-08-25T08:21:40.921Z,101979.94
2022-08-25T08:24:25.028Z,101980.91
2022-08-25T08:27:03.530Z,101978.41
2022-08-25T08:29:36.296Z,101975.88
2022-08-25T08:32:10.667Z,101975.03
2022-08-25T08:34:42.620Z,101978.00
2022-08-25T08:37:16.679Z,101977.16
2022-08-25T08:39:48.811Z,101970.59
2022-08-25T08:42:39.750Z,101971.66
2022-08-25T08:45:29.098Z,101976.09
2022-08-25T08:48:39.455Z,101983.31
2022-08-25T08:51:32.754Z,101989.44
2022-08-25T08:54:18.610Z,101981.75
2022-08-25T08:56:57.087Z,101987.63
2022-08-25T08:59:34.601Z,101976.13
2022-08-25T09:02:13.994Z,101968.81
2022-08-25T09:04:58.177Z,101970.50
2022-08-25T09:07:35.385Z,101971.69
2022-08-25T09:10:08.121Z,101968.19
2022-08-25T09:12:55.014Z,101963.38
2022-08-25T09:16:06.456Z,101966.91
2022-08-25T09:18:52.678Z,101955.72
2022-08-25T09:21:40.113Z,101962.22
2022-08-25T09:24:32.221Z,101962.56
2022-08-25T09:27:25.614Z,101958.22
2022-08-25T09:30:00.293Z,101960.84
2022-08-25T09:32:36.033Z,101961.06
2022-08-25T09:35:20.870Z,101957.16
2022-08-25T09:38:01.241Z,101949.69
2022-08-25T09:40:38.211Z,101953.88
2022-08-25T09:43:23.103Z,101947.44
2022-08-25T09:46:13.962Z,101947.63
2022-08-25T09:49:12.266Z,101950.06
2022-08-25T09:51:44.691Z,101947.16
2022-08-25T09:54:20.291Z,101941.78
2022-08-25T09:57:01.917Z,101930.91
2022-08-25T09:59:36.571Z,101919.94
2022-08-25T10:02:28.977Z,101916.34
2022-08-25T10:05:23.315Z,101911.78
2022-08-25T10:07:58.381Z,101901.19
2022-08-25T10:10:45.256Z,101899.53
2022-08-25T10:13:22.938Z,101903.97
2022-08-25T10:16:36.157Z,101896.00
2022-08-25T10:19:14.656Z,101899.72
2022-08-25T10:22:03.609Z,101894.28
2022-08-25T10:24:38.161Z,101887.06
2022-08-25T10:27:50.907Z,101889.91
2022-08-25T10:30:31.476Z,101891.06
2022-08-25T10:33:15.628Z,101887.28
2022-08-25T10:35:59.022Z,101882.38
2022-08-25T10:38:53.792Z,101881.69
2022-08-25T10:42:01.045Z,101874.63
2022-08-25T10:45:21.958Z,101866.41
2022-08-25T10:48:31.994Z,101851.25
2022-08-25T10:51:19.603Z,101857.78
2022-08-25T10:54:30.336Z,101836.25
2022-08-25T10:57:12.444Z,101835.53
2022-08-25T11:00:03.531Z,101833.97
2022-08-25T11:02:56.562Z,101831.38
2022-08-25T11:05:36.798Z,101823.13
2022-08-25T11:08:31.315Z,101820.19
2022-08-25T11:11:11.876Z,101820.28
2022-08-25T11:14:11.100Z,101812.84
2022-08-25T11:16:50.907Z,101810.72
2022-08-25T11:19:38.131Z,101805.22
2022-08-25T11:22:15.294Z,101805.31
2022-08-25T11:25:07.552Z,101793.72
2022-08-25T11:28:00.723Z,101789.94
2022-08-25T11:30:33.302Z,101791.66
2022-08-25T11:33:06.036Z,101783.97
2022-08-25T11:35:44.364Z,101795.28
2022-08-25T11:38:35.927Z,101774.78
2022-08-25T11:41:28.482Z,101780.38
2022-08-25T11:44:31.266Z,101769.81
2022-08-25T11:47:21.264Z,101764.81
2022-08-25T11:49:59.892Z,101758.31
2022-08-25T11:52:31.769Z,101765.50
2022-08-25T11:55:07.580Z,101752.13
2022-08-25T11:57:43.209Z,101756.13
2022-08-25T12:00:42.701Z,101743.16
2022-08-25T12:03:32.761Z,101735.41
2022-08-25T12:06:16.103Z,101732.56
2022-08-25T12:08:51.416Z,101717.59
2022-08-25T12:11:38.413Z,101716.06
2022-08-25T12:14:20.446Z,101719.28
2022-08-25T12:16:55.290Z,101711.28
2022-08-25T12:19:36.493Z,101713.31
2022-08-25T12:22:09.997Z,101704.56
2022-08-25T12:24:48.309Z,101700.63
2022-08-25T12:27:23.233Z,101702.34
2022-08-25T12:30:05.582Z,101704.09
2022-08-25T12:33:01.837Z,101700.59
2022-08-25T12:35:49.989Z,101688.47
2022-08-25T12:38:49.546Z,101685.53
2022-08-25T12:41:26.719Z,101687.25
2022-08-25T12:44:44.103Z,101681.28
2022-08-25T12:47:27.136Z,101673.50
2022-08-25T12:50:32.668Z,101680.31
2022-08-25T12:53:36.335Z,101675.28
2022-08-25T12:56:27.537Z,101670.00
2022-08-25T12:59:02.344Z,101662.03
2022-08-25T13:01:47.836Z,101658.63
2022-08-25T13:04:33.750Z,101658.84
2022-08-25T13:07:48.358Z,101651.72
2022-08-25T13:10:54.607Z,101661.06
2022-08-25T13:13:44.750Z,101659.16
2022-08-25T13:16:20.235Z,101649.34
2022-08-25T13:18:52.671Z,101649.34
2022-08-25T13:21:39.600Z,101637.09
2022-08-25T13:24:29.754Z,101627.19
2022-08-25T13:27:07.161Z,101617.69
2022-08-25T13:29:55.175Z,101617.47
2022-08-25T13:32:36.151Z,101616.03
2022-08-25T13:35:17.780Z,101603.53
2022-08-25T13:37:53.714Z,101621.72
2022-08-25T13:40:32.680Z,101613.78
2022-08-25T13:43:09.302Z,101609.38
2022-08-25T13:45:44.730Z,101607.47
2022-08-25T13:48:39.135Z,101600.38
2022-08-25T13:51:21.472Z,101594.50
2022-08-25T13:54:06.087Z,101592.81
2022-08-25T13:56:41.601Z,101596.25
2022-08-25T13:59:41.042Z,101588.34
2022-08-25T14:02:19.231Z,101592.38
2022-08-25T14:04:52.755Z,101595.81
2022-08-25T14:07:34.269Z,101593.56
2022-08-25T14:10:30.116Z,101587.63
2022-08-25T14:13:30.875Z,101572.59
2022-08-25T14:16:15.696Z,101584.50
2022-08-25T14:18:52.550Z,101582.91
2022-08-25T14:21:30.345Z,101571.91
2022-08-25T14:24:02.847Z,101575.94
2022-08-25T14:26:34.944Z,101574.44
2022-08-25T14:29:09.781Z,101566.31
2022-08-25T14:31:44.890Z,101563.63
2022-08-25T14:34:20.670Z,101558.66
2022-08-25T14:36:53.140Z,101547.41
2022-08-25T14:39:25.495Z,101548.81
2022-08-25T14:41:57.980Z,101543.34
2022-08-25T14:44:29.950Z,101550.69
2022-08-25T14:47:03.534Z,101551.47
2022-08-25T14:49:42.636Z,101543.66
2022-08-25T14:52:27.706Z,101549.53
2022-08-25T14:54:59.885Z,101540.72
2022-08-25T14:57:31.951Z,101543.31
2022-08-25T15:00:06.074Z,101547.66
2022-08-25T15:02:42.883Z,101540.63
2022-08-25T15:05:17.514Z,101536.28
2022-08-25T15:08:12.221Z,101526.31
2022-08-25T15:10:44.363Z,101523.91
2022-08-25T15:13:16.546Z,101520.81
2022-08-25T15:15:52.781Z,101521.25
2022-08-25T15:18:25.929Z,101518.16
2022-08-25T15:20:58.631Z,101517.25
2022-08-25T15:23:32.348Z,101514.63
2022-08-25T15:26:10.289Z,101505.75
2022-08-25T15:28:48.429Z,101506.88
2022-08-25T15:31:21.351Z,101493.00
2022-08-25T15:33:53.667Z,101495.03
2022-08-25T15:36:26.839Z,101490.34
2022-08-25T15:38:59.146Z,101496.00
2022-08-25T15:41:32.097Z,101487.91
2022-08-25T15:44:07.771Z,101490.22
2022-08-25T15:46:40.598Z,101481.59
2022-08-25T15:49:13.051Z,101473.41
2022-08-25T15:51:45.393Z,101480.19
2022-08-25T15:54:17.518Z,101478.91
2022-08-25T15:56:49.945Z,101474.97
2022-08-25T15:59:25.217Z,101471.88
2022-08-25T16:01:57.706Z,101479.72
2022-08-25T16:04:30.213Z,101477.56
2022-08-25T16:07:03.319Z,101471.22
2022-08-25T16:09:36.358Z,101478.22
2022-08-25T16:12:08.871Z,101474.69
2022-08-25T16:14:42.285Z,101464.97
2022-08-25T16:17:14.552Z,101460.69
2022-08-25T16:19:48.115Z,101459.41
2022-08-25T16:22:20.299Z,101458.63
2022-08-25T16:24:52.396Z,101469.31
2022-08-25T16:27:25.136Z,101459.31
2022-08-25T16:29:57.312Z,101460.94
2022-08-25T16:32:29.455Z,101462.63
2022-08-25T16:35:01.689Z,101455.50
2022-08-25T16:37:35.148Z,101461.22
2022-08-25T16:40:08.550Z,101456.34
2022-08-25T16:42:40.991Z,101453.09
2022-08-25T16:45:13.473Z,101456.44
2022-08-25T16:47:46.322Z,101448.16
2022-08-25T16:50:18.662Z,101453.72
2022-08-25T16:53:11.199Z,101448.16
2022-08-25T16:55:43.593Z,101450.41
2022-08-25T16:58:15.700Z,101448.81
2022-08-25T17:00:47.753Z,101443.56
2022-08-25T17:03:20.298Z,101450.31
2022-08-25T17:05:53.301Z,101442.88
2022-08-25T17:08:31.702Z,101449.63
2022-08-25T17:11:05.563Z,101444.66
2022-08-25T17:13:44.395Z,101444.94
2022-08-25T17:16:18.008Z,101439.06
2022-08-25T17:18:50.630Z,101442.69
2022-08-25T17:21:24.426Z,101442.97
2022-08-25T17:23:57.885Z,101447.44
2022-08-25T17:26:30.506Z,101454.94
2022-08-25T17:29:03.468Z,101444.09
2022-08-25T17:31:39.855Z,101443.56
2022-08-25T17:34:16.376Z,101443.56
2022-08-25T17:36:48.929Z,101444.69
2022-08-25T17:39:22.507Z,101450.53
2022-08-25T17:41:54.843Z,101443.06
2022-08-25T17:44:27.090Z,101451.47
2022-08-25T17:46:59.273Z,101447.63
2022-08-25T17:49:31.352Z,101443.75
2022-08-25T17:52:04.196Z,101447.44
2022-08-25T17:54:37.253Z,101443.25
2022-08-25T17:57:10.193Z,101440.78
2022-08-25T17:59:42.631Z,101452.47
2022-08-25T18:02:14.788Z,101448.34
2022-08-25T18:04:47.035Z,101445.59
2022-08-25T18:07:19.227Z,101455.66
2022-08-25T18:09:54.021Z,101458.44
2022-08-25T18:12:27.533Z,101462.91
2022-08-25T18:15:00.569Z,101457.09
2022-08-25T18:17:32.654Z,101455.19
2022-08-25T18:20:08.392Z,101463.56
2022-08-25T18:22:41.909Z,101465.81
2022-08-25T18:25:16.882Z,101456.91
2022-08-25T18:27:48.975Z,101461.41
2022-08-25T18:30:21.484Z,101462.53
2022-08-25T18:32:53.486Z,101461.97
2022-08-25T18:35:27.444Z,101466.44
2022-08-25T18:38:18.355Z,101456.75
2022-08-25T18:40:58.343Z,101463.69
2022-08-25T18:43:33.840Z,101467.59
2022-08-25T18:46:06.242Z,101463.44
2022-08-25T18:48:40.394Z,101465.97
2022-08-25T18:51:14.092Z,101468.78
2022-08-25T18:53:49.821Z,101472.13
2022-08-25T18:56:24.094Z,101468.81
2022-08-25T18:58:57.495Z,101468.25
2022-08-25T19:01:30.071Z,101469.91
2022-08-25T19:04:02.904Z,101468.81
2022-08-25T19:06:37.222Z,101466.59
2022-08-25T19:09:09.270Z,101473.84
2022-08-25T19:11:41.689Z,101469.97
2022-08-25T19:14:14.203Z,101476.66
2022-08-25T19:16:46.501Z,101463.91
2022-08-25T19:19:18.787Z,101469.78
2022-08-25T19:21:51.696Z,101476.72
2022-08-25T19:24:23.896Z,101466.19
2022-08-25T19:26:58.043Z,101469.81
2022-08-25T19:29:31.455Z,101480.63
2022-08-25T19:32:05.314Z,101474.81
2022-08-25T19:34:42.018Z,101470.94
2022-08-25T19:37:16.488Z,101476.78
2022-08-25T19:39:52.848Z,101480.94
2022-08-25T19:42:37.319Z,101477.31
2022-08-25T19:45:11.179Z,101472.63
2022-08-25T19:47:43.459Z,101474.56
2022-08-25T19:50:17.878Z,101479.03
2022-08-25T19:52:50.105Z,101477.88
2022-08-25T19:55:22.226Z,101476.50
2022-08-25T19:57:54.889Z,101473.75
2022-08-25T20:00:32.581Z,101471.22
2022-08-25T20:03:05.598Z,101482.66
2022-08-25T20:05:39.038Z,101471.81
2022-08-25T20:08:12.664Z,101465.69
2022-08-25T20:10:46.091Z,101474.00
2022-08-25T20:13:19.045Z,101473.47
2022-08-25T20:15:51.724Z,101472.38
2022-08-25T20:18:29.815Z,101474.59
2022-08-25T20:21:01.744Z,101468.75
2022-08-25T20:23:52.205Z,101475.69
2022-08-25T20:26:24.977Z,101466.81
2022-08-25T20:28:59.194Z,101472.66
2022-08-25T20:31:32.085Z,101476.53
2022-08-25T20:34:04.828Z,101477.94
2022-08-25T20:36:38.822Z,101473.97
2022-08-25T20:39:12.042Z,101468.16
2022-08-25T20:41:43.982Z,101476.47
2022-08-25T20:44:23.225Z,101480.66
2022-08-25T20:46:58.289Z,101475.63
2022-08-25T20:49:34.501Z,101470.09
2022-08-25T20:52:09.968Z,101465.09
2022-08-25T20:54:44.031Z,101467.88
2022-08-25T20:57:25.918Z,101472.84
2022-08-25T20:59:58.414Z,101468.44
2022-08-25T21:02:31.045Z,101465.09
2022-08-25T21:05:03.943Z,101472.84
2022-08-25T21:07:36.352Z,101472.28
2022-08-25T21:10:14.164Z,101475.91
2022-08-25T21:12:46.559Z,101470.34
2022-08-25T21:15:18.712Z,101467.84
2022-08-25T21:17:53.240Z,101468.69
2022-08-25T21:20:26.939Z,101474.22
2022-08-25T21:22:58.862Z,101466.72
2022-08-25T21:25:30.781Z,101470.03
2022-08-25T21:28:02.836Z,101474.47
2022-08-25T21:30:35.078Z,101475.00
2022-08-25T21:33:07.917Z,101478.88
2022-08-25T21:35:42.894Z,101470.75
2022-08-25T21:38:14.926Z,101476.03
2022-08-25T21:40:47.068Z,101475.75
2022-08-25T21:43:20.780Z,101477.66
2022-08-25T21:45:52.823Z,101477.66
2022-08-25T21:48:28.022Z,101484.00
2022-08-25T21:51:06.419Z,101469.88
2022-08-25T21:53:41.257Z,101478.44
2022-08-25T21:56:16.171Z,101480.38
2022-08-25T21:58:49.264Z,101477.03
2022-08-25T22:01:21.308Z,101471.47
2022-08-25T22:03:54.507Z,101468.44
2022-08-25T22:06:26.628Z,101467.03
2022-08-25T22:09:01.134Z,101468.41
2022-08-25T22:11:36.075Z,101472.56
2022-08-25T22:14:09.804Z,101478.34
2022-08-25T22:16:42.517Z,101470.31
2022-08-25T22:19:15.304Z,101471.97
2022-08-25T22:21:47.307Z,101466.16
2022-08-25T22:24:21.043Z,101459.78
2022-08-25T22:26:53.054Z,101465.84
2022-08-25T22:29:27.268Z,101460.00
2022-08-25T22:32:02.278Z,101459.97
2022-08-25T22:34:34.933Z,101460.75
2022-08-25T22:37:12.332Z,101457.41
2022-08-25T22:39:48.674Z,101467.69
2022-08-25T22:42:25.482Z,101465.16
2022-08-25T22:44:57.962Z,101457.94
2022-08-25T22:47:29.829Z,101460.72
2022-08-25T22:50:01.810Z,101456.84
2022-08-25T22:52:34.727Z,101462.66
2022-08-25T22:55:11.194Z,101455.72
2022-08-25T22:57:44.435Z,101457.91
2022-08-25T23:00:17.367Z,101456.81
2022-08-25T23:02:53.197Z,101457.09
2022-08-25T23:05:25.279Z,101457.34
2022-08-25T23:07:57.555Z,101451.81
2022-08-25T23:10:29.396Z,101448.50
2022-08-25T23:13:01.466Z,101460.66
2022-08-25T23:15:33.751Z,101450.13
2022-08-25T23:18:06.168Z,101456.19
2022-08-25T23:20:56.742Z,101454.50
2022-08-25T23:23:28.790Z,101444.53
2022-08-25T23:26:00.692Z,101437.56
2022-08-25T23:28:33.284Z,101443.91
2022-08-25T23:31:07.591Z,101435.06
2022-08-25T23:33:43.851Z,101435.31
2022-08-25T23:36:17.585Z,101432.78
2022-08-25T23:38:51.663Z,101427.81
2022-08-25T23:41:25.386Z,101436.06
2022-08-25T23:43:57.782Z,101429.13
2022-08-25T23:46:29.695Z,101426.91
2022-08-25T23:49:02.493Z,101427.41
2022-08-25T23:51:38.236Z,101425.44
2022-08-25T23:54:12.120Z,101431.50
2022-08-25T23:56:51.795Z,101424.81
2022-08-25T23:59:25.673Z,101423.13
